sensor_id;sensor_type;location;lat;lon;timestamp;P1;durP1;ratioP1;P2;durP2;ratioP2
52414;SDS011;38340;52.964;6.086;2023-09-18T00:02:24;27.25;;;20.65;;
52414;SDS011;38340;52.964;6.086;2023-09-18T00:04:50;25.98;;;20.08;;
52414;SDS011;38340;52.964;6.086;2023-09-18T00:07:16;29.42;;;20.73;;
52414;SDS011;38340;52.964;6.086;2023-09-18T00:09:41;26.65;;;20.13;;
52414;SDS011;38340;52.964;6.086;2023-09-18T00:12:07;30.55;;;20.45;;
52414;SDS011;38340;52.964;6.086;2023-09-18T00:14:35;26.15;;;20.13;;
52414;SDS011;38340;52.964;6.086;2023-09-18T00:17:01;30.20;;;21.98;;
52414;SDS011;38340;52.964;6.086;2023-09-18T00:19:27;27.00;;;21.63;;
52414;SDS011;38340;52.964;6.086;2023-09-18T00:21:53;33.17;;;23.00;;
52414;SDS011;38340;52.964;6.086;2023-09-18T00:24:19;32.22;;;22.83;;
52414;SDS011;38340;52.964;6.086;2023-09-18T00:26:45;30.17;;;23.45;;
52414;SDS011;38340;52.964;6.086;2023-09-18T00:29:13;34.80;;;23.48;;
52414;SDS011;38340;52.964;6.086;2023-09-18T00:31:39;30.48;;;23.90;;
52414;SDS011;38340;52.964;6.086;2023-09-18T00:34:05;34.83;;;24.67;;
52414;SDS011;38340;52.964;6.086;2023-09-18T00:36:30;37.42;;;25.80;;
52414;SDS011;38340;52.964;6.086;2023-09-18T00:38:56;32.05;;;24.73;;
52414;SDS011;38340;52.964;6.086;2023-09-18T00:41:21;37.42;;;25.35;;
52414;SDS011;38340;52.964;6.086;2023-09-18T00:43:47;40.35;;;27.05;;
52414;SDS011;38340;52.964;6.086;2023-09-18T00:46:13;42.70;;;27.10;;
52414;SDS011;38340;52.964;6.086;2023-09-18T00:48:39;35.17;;;25.23;;
52414;SDS011;38340;52.964;6.086;2023-09-18T00:51:05;37.58;;;27.15;;
52414;SDS011;38340;52.964;6.086;2023-09-18T00:53:33;36.25;;;25.35;;
52414;SDS011;38340;52.964;6.086;2023-09-18T00:56:00;35.05;;;24.52;;
52414;SDS011;38340;52.964;6.086;2023-09-18T00:58:27;32.80;;;25.55;;
52414;SDS011;38340;52.964;6.086;2023-09-18T01:00:53;35.97;;;25.35;;
52414;SDS011;38340;52.964;6.086;2023-09-18T01:03:19;37.95;;;26.27;;
52414;SDS011;38340;52.964;6.086;2023-09-18T01:05:46;36.40;;;26.55;;
52414;SDS011;38340;52.964;6.086;2023-09-18T01:08:12;30.55;;;24.10;;
52414;SDS011;38340;52.964;6.086;2023-09-18T01:10:47;36.88;;;26.48;;
52414;SDS011;38340;52.964;6.086;2023-09-18T01:13:42;38.78;;;26.90;;
52414;SDS011;38340;52.964;6.086;2023-09-18T01:16:16;39.78;;;28.42;;
52414;SDS011;38340;52.964;6.086;2023-09-18T01:18:48;38.00;;;27.65;;
52414;SDS011;38340;52.964;6.086;2023-09-18T01:21:20;36.53;;;25.98;;
52414;SDS011;38340;52.964;6.086;2023-09-18T01:23:46;37.80;;;26.05;;
52414;SDS011;38340;52.964;6.086;2023-09-18T01:26:12;35.28;;;25.58;;
52414;SDS011;38340;52.964;6.086;2023-09-18T01:28:38;37.97;;;27.05;;
52414;SDS011;38340;52.964;6.086;2023-09-18T01:31:03;32.72;;;24.17;;
52414;SDS011;38340;52.964;6.086;2023-09-18T01:33:29;35.22;;;24.98;;
52414;SDS011;38340;52.964;6.086;2023-09-18T01:35:57;36.00;;;25.33;;
52414;SDS011;38340;52.964;6.086;2023-09-18T01:38:25;32.90;;;24.52;;
52414;SDS011;38340;52.964;6.086;2023-09-18T01:40:52;34.00;;;25.77;;
52414;SDS011;38340;52.964;6.086;2023-09-18T01:43:19;32.30;;;24.02;;
52414;SDS011;38340;52.964;6.086;2023-09-18T01:45:45;36.05;;;26.42;;
52414;SDS011;38340;52.964;6.086;2023-09-18T01:48:11;37.78;;;25.27;;
52414;SDS011;38340;52.964;6.086;2023-09-18T01:50:37;36.85;;;26.35;;
52414;SDS011;38340;52.964;6.086;2023-09-18T01:53:05;37.25;;;27.08;;
52414;SDS011;38340;52.964;6.086;2023-09-18T01:55:30;37.00;;;25.13;;
52414;SDS011;38340;52.964;6.086;2023-09-18T01:57:57;40.40;;;28.33;;
52414;SDS011;38340;52.964;6.086;2023-09-18T02:00:23;37.63;;;23.90;;
52414;SDS011;38340;52.964;6.086;2023-09-18T02:02:49;33.83;;;25.17;;
52414;SDS011;38340;52.964;6.086;2023-09-18T02:05:15;35.03;;;24.55;;
52414;SDS011;38340;52.964;6.086;2023-09-18T02:07:41;34.17;;;24.42;;
52414;SDS011;38340;52.964;6.086;2023-09-18T02:10:06;35.95;;;24.50;;
52414;SDS011;38340;52.964;6.086;2023-09-18T02:12:32;34.83;;;26.23;;
52414;SDS011;38340;52.964;6.086;2023-09-18T02:14:58;38.63;;;25.60;;
52414;SDS011;38340;52.964;6.086;2023-09-18T02:17:29;38.05;;;26.05;;
52414;SDS011;38340;52.964;6.086;2023-09-18T02:19:55;35.42;;;26.67;;
52414;SDS011;38340;52.964;6.086;2023-09-18T02:22:21;38.03;;;26.55;;
52414;SDS011;38340;52.964;6.086;2023-09-18T02:24:47;35.58;;;26.08;;
52414;SDS011;38340;52.964;6.086;2023-09-18T02:27:12;39.17;;;25.63;;
52414;SDS011;38340;52.964;6.086;2023-09-18T02:29:38;35.83;;;26.33;;
52414;SDS011;38340;52.964;6.086;2023-09-18T02:32:04;37.20;;;27.52;;
52414;SDS011;38340;52.964;6.086;2023-09-18T02:34:30;38.75;;;28.02;;
52414;SDS011;38340;52.964;6.086;2023-09-18T02:36:55;39.38;;;28.23;;
52414;SDS011;38340;52.964;6.086;2023-09-18T02:39:21;38.28;;;26.35;;
52414;SDS011;38340;52.964;6.086;2023-09-18T02:41:47;35.45;;;26.52;;
52414;SDS011;38340;52.964;6.086;2023-09-18T02:44:13;41.70;;;29.02;;
52414;SDS011;38340;52.964;6.086;2023-09-18T02:46:39;38.83;;;28.17;;
52414;SDS011;38340;52.964;6.086;2023-09-18T02:49:05;40.67;;;29.45;;
52414;SDS011;38340;52.964;6.086;2023-09-18T02:51:30;41.28;;;28.10;;
52414;SDS011;38340;52.964;6.086;2023-09-18T02:53:59;44.63;;;28.15;;
52414;SDS011;38340;52.964;6.086;2023-09-18T02:56:25;52.22;;;29.05;;
52414;SDS011;38340;52.964;6.086;2023-09-18T02:58:50;39.00;;;30.17;;
52414;SDS011;38340;52.964;6.086;2023-09-18T03:01:16;38.63;;;28.38;;
52414;SDS011;38340;52.964;6.086;2023-09-18T03:03:42;42.40;;;29.23;;
52414;SDS011;38340;52.964;6.086;2023-09-18T03:06:08;38.55;;;27.25;;
52414;SDS011;38340;52.964;6.086;2023-09-18T03:08:34;39.03;;;27.48;;
52414;SDS011;38340;52.964;6.086;2023-09-18T03:11:00;44.60;;;29.80;;
52414;SDS011;38340;52.964;6.086;2023-09-18T03:13:26;42.30;;;29.13;;
52414;SDS011;38340;52.964;6.086;2023-09-18T03:15:53;42.63;;;28.33;;
52414;SDS011;38340;52.964;6.086;2023-09-18T03:18:19;42.17;;;28.77;;
52414;SDS011;38340;52.964;6.086;2023-09-18T03:20:45;42.42;;;29.17;;
52414;SDS011;38340;52.964;6.086;2023-09-18T03:23:10;41.90;;;29.60;;
52414;SDS011;38340;52.964;6.086;2023-09-18T03:25:36;42.55;;;29.40;;
52414;SDS011;38340;52.964;6.086;2023-09-18T03:28:05;40.72;;;29.35;;
52414;SDS011;38340;52.964;6.086;2023-09-18T03:30:30;39.92;;;28.42;;
52414;SDS011;38340;52.964;6.086;2023-09-18T03:32:56;38.50;;;27.73;;
52414;SDS011;38340;52.964;6.086;2023-09-18T03:35:22;41.92;;;29.15;;
52414;SDS011;38340;52.964;6.086;2023-09-18T03:37:51;43.47;;;28.92;;
52414;SDS011;38340;52.964;6.086;2023-09-18T03:40:21;39.75;;;28.05;;
52414;SDS011;38340;52.964;6.086;2023-09-18T03:42:47;42.72;;;31.27;;
52414;SDS011;38340;52.964;6.086;2023-09-18T03:45:14;41.72;;;31.13;;
52414;SDS011;38340;52.964;6.086;2023-09-18T03:47:41;45.45;;;30.65;;
52414;SDS011;38340;52.964;6.086;2023-09-18T03:50:07;41.92;;;30.48;;
52414;SDS011;38340;52.964;6.086;2023-09-18T03:52:37;40.75;;;27.42;;
52414;SDS011;38340;52.964;6.086;2023-09-18T03:55:06;43.83;;;29.45;;
52414;SDS011;38340;52.964;6.086;2023-09-18T03:57:33;39.80;;;28.40;;
52414;SDS011;38340;52.964;6.086;2023-09-18T03:59:59;38.67;;;29.27;;
52414;SDS011;38340;52.964;6.086;2023-09-18T04:02:25;38.50;;;28.38;;
52414;SDS011;38340;52.964;6.086;2023-09-18T04:04:51;39.38;;;28.10;;
52414;SDS011;38340;52.964;6.086;2023-09-18T04:07:19;41.90;;;29.25;;
52414;SDS011;38340;52.964;6.086;2023-09-18T04:09:45;40.15;;;29.25;;
52414;SDS011;38340;52.964;6.086;2023-09-18T04:12:11;36.30;;;26.88;;
52414;SDS011;38340;52.964;6.086;2023-09-18T04:14:37;39.22;;;28.05;;
52414;SDS011;38340;52.964;6.086;2023-09-18T04:17:03;39.50;;;28.80;;
52414;SDS011;38340;52.964;6.086;2023-09-18T04:19:29;38.05;;;28.35;;
52414;SDS011;38340;52.964;6.086;2023-09-18T04:21:55;38.05;;;27.65;;
52414;SDS011;38340;52.964;6.086;2023-09-18T04:24:21;41.28;;;27.92;;
52414;SDS011;38340;52.964;6.086;2023-09-18T04:26:48;37.53;;;27.92;;
52414;SDS011;38340;52.964;6.086;2023-09-18T04:29:16;35.92;;;26.48;;
52414;SDS011;38340;52.964;6.086;2023-09-18T04:31:42;39.50;;;28.60;;
52414;SDS011;38340;52.964;6.086;2023-09-18T04:34:07;35.28;;;26.73;;
52414;SDS011;38340;52.964;6.086;2023-09-18T04:36:33;37.60;;;27.88;;
52414;SDS011;38340;52.964;6.086;2023-09-18T04:38:59;35.80;;;26.63;;
52414;SDS011;38340;52.964;6.086;2023-09-18T04:41:24;119.40;;;33.83;;
52414;SDS011;38340;52.964;6.086;2023-09-18T04:43:50;44.40;;;27.27;;
52414;SDS011;38340;52.964;6.086;2023-09-18T04:46:16;107.22;;;34.38;;
52414;SDS011;38340;52.964;6.086;2023-09-18T04:48:42;45.80;;;26.50;;
52414;SDS011;38340;52.964;6.086;2023-09-18T04:51:07;35.78;;;25.05;;
52414;SDS011;38340;52.964;6.086;2023-09-18T04:53:33;33.53;;;24.98;;
52414;SDS011;38340;52.964;6.086;2023-09-18T04:55:59;30.20;;;23.08;;
52414;SDS011;38340;52.964;6.086;2023-09-18T04:58:25;32.58;;;23.30;;
52414;SDS011;38340;52.964;6.086;2023-09-18T05:00:55;31.92;;;22.88;;
52414;SDS011;38340;52.964;6.086;2023-09-18T05:03:21;29.52;;;23.15;;
52414;SDS011;38340;52.964;6.086;2023-09-18T05:05:47;74.03;;;27.52;;
52414;SDS011;38340;52.964;6.086;2023-09-18T05:08:13;30.05;;;22.27;;
52414;SDS011;38340;52.964;6.086;2023-09-18T05:10:39;94.35;;;27.17;;
52414;SDS011;38340;52.964;6.086;2023-09-18T05:13:05;33.47;;;21.45;;
52414;SDS011;38340;52.964;6.086;2023-09-18T05:15:31;26.98;;;22.08;;
52414;SDS011;38340;52.964;6.086;2023-09-18T05:17:58;32.97;;;22.90;;
52414;SDS011;38340;52.964;6.086;2023-09-18T05:20:25;28.83;;;21.70;;
52414;SDS011;38340;52.964;6.086;2023-09-18T05:22:52;29.42;;;21.65;;
52414;SDS011;38340;52.964;6.086;2023-09-18T05:25:18;28.90;;;20.77;;
52414;SDS011;38340;52.964;6.086;2023-09-18T05:27:44;26.58;;;19.88;;
52414;SDS011;38340;52.964;6.086;2023-09-18T05:30:11;24.20;;;19.92;;
52414;SDS011;38340;52.964;6.086;2023-09-18T05:32:38;27.38;;;20.90;;
52414;SDS011;38340;52.964;6.086;2023-09-18T05:35:04;26.33;;;20.50;;
52414;SDS011;38340;52.964;6.086;2023-09-18T05:37:31;22.90;;;19.25;;
52414;SDS011;38340;52.964;6.086;2023-09-18T05:39:58;29.63;;;18.52;;
52414;SDS011;38340;52.964;6.086;2023-09-18T05:42:24;27.52;;;18.17;;
52414;SDS011;38340;52.964;6.086;2023-09-18T05:44:49;22.48;;;18.05;;
52414;SDS011;38340;52.964;6.086;2023-09-18T05:47:15;24.70;;;17.05;;
52414;SDS011;38340;52.964;6.086;2023-09-18T05:49:41;23.08;;;17.10;;
52414;SDS011;38340;52.964;6.086;2023-09-18T05:52:06;24.27;;;17.80;;
52414;SDS011;38340;52.964;6.086;2023-09-18T05:54:32;20.60;;;15.40;;
52414;SDS011;38340;52.964;6.086;2023-09-18T05:56:58;20.65;;;15.95;;
52414;SDS011;38340;52.964;6.086;2023-09-18T05:59:24;23.30;;;16.75;;
52414;SDS011;38340;52.964;6.086;2023-09-18T06:01:49;21.48;;;17.25;;
52414;SDS011;38340;52.964;6.086;2023-09-18T06:04:16;25.77;;;17.77;;
52414;SDS011;38340;52.964;6.086;2023-09-18T06:06:42;24.08;;;15.85;;
52414;SDS011;38340;52.964;6.086;2023-09-18T06:09:07;25.83;;;16.35;;
52414;SDS011;38340;52.964;6.086;2023-09-18T06:11:33;27.15;;;17.58;;
52414;SDS011;38340;52.964;6.086;2023-09-18T06:13:59;28.85;;;17.52;;
52414;SDS011;38340;52.964;6.086;2023-09-18T06:16:25;28.08;;;18.23;;
52414;SDS011;38340;52.964;6.086;2023-09-18T06:18:50;28.60;;;17.90;;
52414;SDS011;38340;52.964;6.086;2023-09-18T06:21:16;27.77;;;18.13;;
52414;SDS011;38340;52.964;6.086;2023-09-18T06:23:42;26.27;;;16.73;;
52414;SDS011;38340;52.964;6.086;2023-09-18T06:26:07;35.60;;;29.77;;
52414;SDS011;38340;52.964;6.086;2023-09-18T06:28:33;27.10;;;15.25;;
52414;SDS011;38340;52.964;6.086;2023-09-18T06:30:59;30.42;;;16.35;;
52414;SDS011;38340;52.964;6.086;2023-09-18T06:33:24;21.38;;;14.07;;
52414;SDS011;38340;52.964;6.086;2023-09-18T06:35:50;23.38;;;14.35;;
52414;SDS011;38340;52.964;6.086;2023-09-18T06:38:17;21.45;;;14.15;;
52414;SDS011;38340;52.964;6.086;2023-09-18T06:40:42;29.75;;;20.67;;
52414;SDS011;38340;52.964;6.086;2023-09-18T06:43:08;32.80;;;21.45;;
52414;SDS011;38340;52.964;6.086;2023-09-18T06:45:34;29.58;;;20.92;;
52414;SDS011;38340;52.964;6.086;2023-09-18T06:48:03;29.80;;;21.02;;
52414;SDS011;38340;52.964;6.086;2023-09-18T06:50:29;26.40;;;17.90;;
52414;SDS011;38340;52.964;6.086;2023-09-18T06:52:55;31.92;;;18.77;;
52414;SDS011;38340;52.964;6.086;2023-09-18T06:55:21;30.67;;;18.50;;
52414;SDS011;38340;52.964;6.086;2023-09-18T06:57:47;24.00;;;17.67;;
52414;SDS011;38340;52.964;6.086;2023-09-18T07:00:14;25.83;;;17.95;;
52414;SDS011;38340;52.964;6.086;2023-09-18T07:02:40;31.23;;;18.20;;
52414;SDS011;38340;52.964;6.086;2023-09-18T07:05:06;29.40;;;17.20;;
52414;SDS011;38340;52.964;6.086;2023-09-18T07:07:31;30.00;;;17.50;;
52414;SDS011;38340;52.964;6.086;2023-09-18T07:09:57;27.35;;;17.90;;
52414;SDS011;38340;52.964;6.086;2023-09-18T07:12:23;26.52;;;17.17;;
52414;SDS011;38340;52.964;6.086;2023-09-18T07:14:49;28.65;;;17.92;;
52414;SDS011;38340;52.964;6.086;2023-09-18T07:17:14;25.02;;;16.45;;
52414;SDS011;38340;52.964;6.086;2023-09-18T07:19:41;25.75;;;16.60;;
52414;SDS011;38340;52.964;6.086;2023-09-18T07:22:07;23.75;;;14.55;;
52414;SDS011;38340;52.964;6.086;2023-09-18T07:24:32;25.50;;;14.82;;
52414;SDS011;38340;52.964;6.086;2023-09-18T07:26:58;23.25;;;13.93;;
52414;SDS011;38340;52.964;6.086;2023-09-18T07:29:24;21.38;;;14.73;;
52414;SDS011;38340;52.964;6.086;2023-09-18T07:31:52;28.83;;;15.05;;
52414;SDS011;38340;52.964;6.086;2023-09-18T07:34:18;23.58;;;15.00;;
52414;SDS011;38340;52.964;6.086;2023-09-18T07:36:44;21.83;;;14.23;;
52414;SDS011;38340;52.964;6.086;2023-09-18T07:39:09;31.08;;;16.05;;
52414;SDS011;38340;52.964;6.086;2023-09-18T07:41:36;20.52;;;14.35;;
52414;SDS011;38340;52.964;6.086;2023-09-18T07:44:02;24.40;;;13.98;;
52414;SDS011;38340;52.964;6.086;2023-09-18T07:46:28;20.10;;;12.90;;
52414;SDS011;38340;52.964;6.086;2023-09-18T07:48:54;26.90;;;12.45;;
52414;SDS011;38340;52.964;6.086;2023-09-18T07:51:20;18.88;;;11.30;;
52414;SDS011;38340;52.964;6.086;2023-09-18T07:53:46;22.38;;;12.18;;
52414;SDS011;38340;52.964;6.086;2023-09-18T07:56:12;21.30;;;13.52;;
52414;SDS011;38340;52.964;6.086;2023-09-18T07:58:38;20.00;;;12.73;;
52414;SDS011;38340;52.964;6.086;2023-09-18T08:01:04;19.02;;;12.90;;
52414;SDS011;38340;52.964;6.086;2023-09-18T08:03:30;24.75;;;12.77;;
52414;SDS011;38340;52.964;6.086;2023-09-18T08:05:57;21.83;;;12.82;;
52414;SDS011;38340;52.964;6.086;2023-09-18T08:08:23;22.55;;;15.68;;
52414;SDS011;38340;52.964;6.086;2023-09-18T08:10:50;23.75;;;13.48;;
52414;SDS011;38340;52.964;6.086;2023-09-18T08:13:16;23.10;;;13.77;;
52414;SDS011;38340;52.964;6.086;2023-09-18T08:15:42;21.45;;;13.18;;
52414;SDS011;38340;52.964;6.086;2023-09-18T08:18:11;21.15;;;13.90;;
52414;SDS011;38340;52.964;6.086;2023-09-18T08:20:43;25.27;;;13.80;;
52414;SDS011;38340;52.964;6.086;2023-09-18T08:23:09;30.70;;;14.93;;
52414;SDS011;38340;52.964;6.086;2023-09-18T08:25:36;21.27;;;13.85;;
52414;SDS011;38340;52.964;6.086;2023-09-18T08:28:02;29.60;;;14.70;;
52414;SDS011;38340;52.964;6.086;2023-09-18T08:30:29;25.95;;;14.95;;
52414;SDS011;38340;52.964;6.086;2023-09-18T08:32:55;24.17;;;12.68;;
52414;SDS011;38340;52.964;6.086;2023-09-18T08:35:21;21.10;;;13.35;;
52414;SDS011;38340;52.964;6.086;2023-09-18T08:37:47;18.67;;;12.02;;
52414;SDS011;38340;52.964;6.086;2023-09-18T08:40:14;20.25;;;12.32;;
52414;SDS011;38340;52.964;6.086;2023-09-18T08:42:44;34.90;;;12.68;;
52414;SDS011;38340;52.964;6.086;2023-09-18T08:45:12;18.17;;;12.00;;
52414;SDS011;38340;52.964;6.086;2023-09-18T08:47:43;21.63;;;11.07;;
52414;SDS011;38340;52.964;6.086;2023-09-18T08:50:10;15.48;;;9.63;;
52414;SDS011;38340;52.964;6.086;2023-09-18T08:52:37;32.55;;;13.43;;
52414;SDS011;38340;52.964;6.086;2023-09-18T08:55:04;17.48;;;10.77;;
52414;SDS011;38340;52.964;6.086;2023-09-18T08:57:31;18.92;;;11.10;;
52414;SDS011;38340;52.964;6.086;2023-09-18T08:59:58;14.80;;;9.30;;
52414;SDS011;38340;52.964;6.086;2023-09-18T09:02:29;13.13;;;8.35;;
52414;SDS011;38340;52.964;6.086;2023-09-18T09:04:55;14.98;;;8.40;;
52414;SDS011;38340;52.964;6.086;2023-09-18T09:07:21;12.80;;;8.63;;
52414;SDS011;38340;52.964;6.086;2023-09-18T09:09:46;18.58;;;8.80;;
52414;SDS011;38340;52.964;6.086;2023-09-18T09:12:12;31.95;;;11.13;;
52414;SDS011;38340;52.964;6.086;2023-09-18T09:14:38;14.77;;;9.38;;
52414;SDS011;38340;52.964;6.086;2023-09-18T09:17:04;17.30;;;9.73;;
52414;SDS011;38340;52.964;6.086;2023-09-18T09:19:31;14.43;;;9.15;;
52414;SDS011;38340;52.964;6.086;2023-09-18T09:22:01;13.45;;;8.65;;
52414;SDS011;38340;52.964;6.086;2023-09-18T09:24:43;12.82;;;8.23;;
52414;SDS011;38340;52.964;6.086;2023-09-18T09:27:09;15.88;;;8.45;;
52414;SDS011;38340;52.964;6.086;2023-09-18T09:29:35;13.45;;;9.82;;
52414;SDS011;38340;52.964;6.086;2023-09-18T09:32:17;17.40;;;11.63;;
52414;SDS011;38340;52.964;6.086;2023-09-18T09:34:44;91.10;;;22.30;;
52414;SDS011;38340;52.964;6.086;2023-09-18T09:37:11;21.17;;;11.43;;
52414;SDS011;38340;52.964;6.086;2023-09-18T09:39:50;18.67;;;12.13;;
52414;SDS011;38340;52.964;6.086;2023-09-18T09:42:17;16.23;;;10.88;;
52414;SDS011;38340;52.964;6.086;2023-09-18T09:45:01;15.27;;;12.57;;
52414;SDS011;38340;52.964;6.086;2023-09-18T09:47:32;17.70;;;11.48;;
52414;SDS011;38340;52.964;6.086;2023-09-18T09:50:05;18.05;;;11.60;;
52414;SDS011;38340;52.964;6.086;2023-09-18T09:52:36;15.98;;;10.82;;
52414;SDS011;38340;52.964;6.086;2023-09-18T09:55:17;17.80;;;11.05;;
52414;SDS011;38340;52.964;6.086;2023-09-18T09:57:48;16.42;;;11.80;;
52414;SDS011;38340;52.964;6.086;2023-09-18T10:00:15;16.48;;;11.43;;
52414;SDS011;38340;52.964;6.086;2023-09-18T10:02:52;15.88;;;10.73;;
52414;SDS011;38340;52.964;6.086;2023-09-18T10:05:21;17.77;;;11.20;;
52414;SDS011;38340;52.964;6.086;2023-09-18T10:07:49;11.80;;;9.63;;
52414;SDS011;38340;52.964;6.086;2023-09-18T10:10:16;13.68;;;10.65;;
52414;SDS011;38340;52.964;6.086;2023-09-18T10:12:42;13.43;;;9.90;;
52414;SDS011;38340;52.964;6.086;2023-09-18T10:15:11;13.07;;;9.30;;
52414;SDS011;38340;52.964;6.086;2023-09-18T10:17:37;11.10;;;8.77;;
52414;SDS011;38340;52.964;6.086;2023-09-18T10:20:13;18.80;;;9.07;;
52414;SDS011;38340;52.964;6.086;2023-09-18T10:22:45;12.73;;;8.98;;
52414;SDS011;38340;52.964;6.086;2023-09-18T10:27:44;11.02;;;7.72;;
52414;SDS011;38340;52.964;6.086;2023-09-18T10:30:14;8.93;;;6.78;;
52414;SDS011;38340;52.964;6.086;2023-09-18T10:32:43;12.05;;;7.18;;
52414;SDS011;38340;52.964;6.086;2023-09-18T10:35:13;10.20;;;7.15;;
52414;SDS011;38340;52.964;6.086;2023-09-18T10:37:43;8.75;;;6.85;;
52414;SDS011;38340;52.964;6.086;2023-09-18T10:40:10;8.20;;;6.53;;
52414;SDS011;38340;52.964;6.086;2023-09-18T10:42:40;8.75;;;6.32;;
52414;SDS011;38340;52.964;6.086;2023-09-18T10:45:07;8.20;;;5.47;;
52414;SDS011;38340;52.964;6.086;2023-09-18T10:47:37;7.30;;;6.32;;
52414;SDS011;38340;52.964;6.086;2023-09-18T10:50:06;8.65;;;6.53;;
52414;SDS011;38340;52.964;6.086;2023-09-18T10:52:34;8.50;;;6.53;;
52414;SDS011;38340;52.964;6.086;2023-09-18T10:55:01;10.25;;;6.03;;
52414;SDS011;38340;52.964;6.086;2023-09-18T10:57:33;7.00;;;5.60;;
52414;SDS011;38340;52.964;6.086;2023-09-18T11:00:03;8.25;;;5.30;;
52414;SDS011;38340;52.964;6.086;2023-09-18T11:02:41;8.43;;;5.68;;
52414;SDS011;38340;52.964;6.086;2023-09-18T11:05:07;7.38;;;4.97;;
52414;SDS011;38340;52.964;6.086;2023-09-18T11:07:33;6.20;;;5.60;;
52414;SDS011;38340;52.964;6.086;2023-09-18T11:09:59;7.70;;;5.43;;
52414;SDS011;38340;52.964;6.086;2023-09-18T11:12:44;11.55;;;8.50;;
52414;SDS011;38340;52.964;6.086;2023-09-18T11:15:24;8.57;;;5.15;;
52414;SDS011;38340;52.964;6.086;2023-09-18T11:20:25;9.27;;;5.40;;
52414;SDS011;38340;52.964;6.086;2023-09-18T11:22:56;8.15;;;5.32;;
52414;SDS011;38340;52.964;6.086;2023-09-18T11:25:37;7.88;;;4.88;;
52414;SDS011;38340;52.964;6.086;2023-09-18T11:28:08;6.35;;;5.25;;
52414;SDS011;38340;52.964;6.086;2023-09-18T11:30:48;16.48;;;5.40;;
52414;SDS011;38340;52.964;6.086;2023-09-18T11:36:09;6.15;;;5.07;;
52414;SDS011;38340;52.964;6.086;2023-09-18T11:39:01;8.85;;;5.30;;
52414;SDS011;38340;52.964;6.086;2023-09-18T11:41:30;6.25;;;5.15;;
52414;SDS011;38340;52.964;6.086;2023-09-18T11:46:37;8.25;;;5.70;;
52414;SDS011;38340;52.964;6.086;2023-09-18T11:49:06;7.25;;;5.78;;
52414;SDS011;38340;52.964;6.086;2023-09-18T11:51:35;13.30;;;6.28;;
52414;SDS011;38340;52.964;6.086;2023-09-18T11:54:01;9.38;;;5.35;;
52414;SDS011;38340;52.964;6.086;2023-09-18T11:56:29;6.93;;;5.13;;
52414;SDS011;38340;52.964;6.086;2023-09-18T11:58:55;8.93;;;5.18;;
52414;SDS011;38340;52.964;6.086;2023-09-18T12:01:21;10.35;;;5.53;;
52414;SDS011;38340;52.964;6.086;2023-09-18T12:03:59;5.93;;;4.82;;
52414;SDS011;38340;52.964;6.086;2023-09-18T12:06:26;7.00;;;4.80;;
52414;SDS011;38340;52.964;6.086;2023-09-18T12:08:52;7.68;;;5.18;;
52414;SDS011;38340;52.964;6.086;2023-09-18T12:11:18;10.20;;;5.10;;
52414;SDS011;38340;52.964;6.086;2023-09-18T12:13:47;7.90;;;5.03;;
52414;SDS011;38340;52.964;6.086;2023-09-18T12:16:16;9.52;;;4.70;;
52414;SDS011;38340;52.964;6.086;2023-09-18T12:18:45;9.70;;;5.72;;
52414;SDS011;38340;52.964;6.086;2023-09-18T12:21:13;5.47;;;4.45;;
52414;SDS011;38340;52.964;6.086;2023-09-18T12:23:42;6.95;;;4.13;;
52414;SDS011;38340;52.964;6.086;2023-09-18T12:26:12;6.78;;;4.32;;
52414;SDS011;38340;52.964;6.086;2023-09-18T12:28:40;8.85;;;4.22;;
52414;SDS011;38340;52.964;6.086;2023-09-18T12:31:15;4.70;;;3.75;;
52414;SDS011;38340;52.964;6.086;2023-09-18T12:33:42;5.93;;;3.40;;
52414;SDS011;38340;52.964;6.086;2023-09-18T12:36:18;5.78;;;3.55;;
52414;SDS011;38340;52.964;6.086;2023-09-18T12:38:54;5.35;;;3.90;;
52414;SDS011;38340;52.964;6.086;2023-09-18T12:41:21;5.47;;;3.67;;
52414;SDS011;38340;52.964;6.086;2023-09-18T12:43:49;7.63;;;4.22;;
52414;SDS011;38340;52.964;6.086;2023-09-18T12:46:15;8.13;;;4.55;;
52414;SDS011;38340;52.964;6.086;2023-09-18T12:48:41;5.70;;;4.38;;
52414;SDS011;38340;52.964;6.086;2023-09-18T12:51:10;7.00;;;4.82;;
52414;SDS011;38340;52.964;6.086;2023-09-18T12:53:36;7.85;;;4.72;;
52414;SDS011;38340;52.964;6.086;2023-09-18T12:58:38;7.53;;;4.85;;
52414;SDS011;38340;52.964;6.086;2023-09-18T13:01:05;7.18;;;4.57;;
52414;SDS011;38340;52.964;6.086;2023-09-18T13:03:41;6.40;;;4.47;;
52414;SDS011;38340;52.964;6.086;2023-09-18T13:06:12;8.18;;;4.22;;
52414;SDS011;38340;52.964;6.086;2023-09-18T13:08:45;6.70;;;3.95;;
52414;SDS011;38340;52.964;6.086;2023-09-18T13:11:12;6.20;;;3.85;;
52414;SDS011;38340;52.964;6.086;2023-09-18T13:13:39;8.55;;;4.30;;
52414;SDS011;38340;52.964;6.086;2023-09-18T13:16:06;6.05;;;3.22;;
52414;SDS011;38340;52.964;6.086;2023-09-18T13:18:36;7.78;;;3.97;;
52414;SDS011;38340;52.964;6.086;2023-09-18T13:21:11;5.32;;;3.33;;
52414;SDS011;38340;52.964;6.086;2023-09-18T13:23:38;8.77;;;4.05;;
52414;SDS011;38340;52.964;6.086;2023-09-18T13:26:05;4.72;;;3.30;;
52414;SDS011;38340;52.964;6.086;2023-09-18T13:28:33;7.03;;;3.78;;
52414;SDS011;38340;52.964;6.086;2023-09-18T13:31:01;7.65;;;4.30;;
52414;SDS011;38340;52.964;6.086;2023-09-18T13:33:31;6.75;;;3.83;;
52414;SDS011;38340;52.964;6.086;2023-09-18T13:35:58;6.13;;;3.72;;
52414;SDS011;38340;52.964;6.086;2023-09-18T13:38:24;6.13;;;3.80;;
52414;SDS011;38340;52.964;6.086;2023-09-18T13:40:51;7.57;;;4.00;;
52414;SDS011;38340;52.964;6.086;2023-09-18T13:43:19;6.65;;;4.40;;
52414;SDS011;38340;52.964;6.086;2023-09-18T13:45:47;5.45;;;4.22;;
52414;SDS011;38340;52.964;6.086;2023-09-18T13:48:16;5.40;;;3.70;;
52414;SDS011;38340;52.964;6.086;2023-09-18T13:50:42;6.13;;;4.40;;
52414;SDS011;38340;52.964;6.086;2023-09-18T13:53:08;6.22;;;3.88;;
52414;SDS011;38340;52.964;6.086;2023-09-18T13:55:34;5.75;;;3.65;;
52414;SDS011;38340;52.964;6.086;2023-09-18T13:58:00;7.38;;;4.10;;
52414;SDS011;38340;52.964;6.086;2023-09-18T14:00:30;5.25;;;3.60;;
52414;SDS011;38340;52.964;6.086;2023-09-18T14:02:56;7.25;;;3.58;;
52414;SDS011;38340;52.964;6.086;2023-09-18T14:05:22;5.85;;;3.65;;
52414;SDS011;38340;52.964;6.086;2023-09-18T14:07:48;5.45;;;3.85;;
52414;SDS011;38340;52.964;6.086;2023-09-18T14:10:15;4.97;;;3.90;;
52414;SDS011;38340;52.964;6.086;2023-09-18T14:12:43;6.75;;;3.90;;
52414;SDS011;38340;52.964;6.086;2023-09-18T14:15:09;7.00;;;4.65;;
52414;SDS011;38340;52.964;6.086;2023-09-18T14:17:35;5.07;;;4.03;;
52414;SDS011;38340;52.964;6.086;2023-09-18T14:20:03;7.00;;;4.47;;
52414;SDS011;38340;52.964;6.086;2023-09-18T14:22:34;8.27;;;4.35;;
52414;SDS011;38340;52.964;6.086;2023-09-18T14:25:00;7.10;;;4.47;;
52414;SDS011;38340;52.964;6.086;2023-09-18T14:27:30;6.75;;;5.47;;
52414;SDS011;38340;52.964;6.086;2023-09-18T14:29:56;8.75;;;5.20;;
52414;SDS011;38340;52.964;6.086;2023-09-18T14:32:21;6.78;;;4.47;;
52414;SDS011;38340;52.964;6.086;2023-09-18T14:34:47;8.43;;;5.10;;
52414;SDS011;38340;52.964;6.086;2023-09-18T14:37:13;9.23;;;4.60;;
52414;SDS011;38340;52.964;6.086;2023-09-18T14:39:39;7.65;;;4.65;;
52414;SDS011;38340;52.964;6.086;2023-09-18T14:42:04;5.97;;;4.80;;
52414;SDS011;38340;52.964;6.086;2023-09-18T14:44:30;6.78;;;4.70;;